»·PEaware :: SWA1010 KDEN-KMTJ

SWA1010 :: KDEN-KMTJ

FLIGHT INFORMATION

Flight Status: Arrived
Operator:
Southwest Airlines
More flights by this operator :: More flights under this callsign
Pilot: Joshua P. (42649)
Aircraft: BOEING 737-600
(B736)
More flights by this aircraft type
Origin: KDEN Denver Intl
United States
Destination: KMTJ Montrose Regl
United States
More flights between these airports :: More routes between these airports
Route: BAYLR6 TEHRU DIRDY
File this flight plan on PilotEdge
Remarks: RMK / SIMBRIEF
Altitude:
(Current/Filed)
26,000ft
Speed:
(Current/Filed)
387kts
Departed: 19-Mar-23 04:54 PM
Arrived: 19-Mar-23 05:26 PM
Distance/Time
Traveled:
171nm/0:32
Distance/Time
To Go:
Arrived

Flight Plot

Page will automatically refresh every two minutes.

Flight plan parsing failed; only flown route is shown


Map Options




Map Legend


Flown Route
Filed Route
Departure Airport
Arrival Airport
Navaid (VOR, NDB)
Fix

Horizontal Profiles

Position Reports

Time Latitude Longitude Heading Altitude Ground
Speed
19-Mar-23 16:17 39.865689 -104.678176 359 5374ft 0kts
19-Mar-23 16:18 39.865689 -104.678176 359 5374ft 0kts
19-Mar-23 16:19 39.865689 -104.678176 359 5374ft 0kts
19-Mar-23 16:20 39.865689 -104.678176 359 5374ft 0kts
19-Mar-23 16:21 39.865689 -104.678176 359 5374ft 0kts
19-Mar-23 16:22 39.865689 -104.678176 359 5374ft 0kts
19-Mar-23 16:23 39.865689 -104.678176 359 5374ft 0kts
19-Mar-23 16:24 39.865689 -104.678176 359 5364ft 0kts
19-Mar-23 16:25 39.865689 -104.678176 359 5364ft 0kts
19-Mar-23 16:26 39.865689 -104.678176 359 5364ft 0kts
19-Mar-23 16:27 39.865689 -104.678176 359 5364ft 0kts
19-Mar-23 16:28 39.865689 -104.678176 359 5364ft 0kts
19-Mar-23 16:29 39.865689 -104.678176 359 5364ft 0kts
19-Mar-23 16:30 39.865689 -104.678176 359 5364ft 0kts
19-Mar-23 16:31 39.865689 -104.678176 359 5364ft 0kts
19-Mar-23 16:32 39.865689 -104.678176 359 5364ft 0kts
19-Mar-23 16:33 39.865689 -104.678176 359 5364ft 0kts
19-Mar-23 16:34 39.865689 -104.678176 359 5364ft 0kts
19-Mar-23 16:35 39.865689 -104.678176 359 5364ft 0kts
19-Mar-23 16:36 39.865689 -104.678176 359 5364ft 0kts
19-Mar-23 16:37 39.865689 -104.678176 359 5364ft 0kts
19-Mar-23 16:38 39.865689 -104.678176 359 5364ft 0kts
19-Mar-23 16:39 39.865689 -104.678176 359 5364ft 0kts
19-Mar-23 16:40 39.865689 -104.678176 359 5364ft 0kts
19-Mar-23 16:41 39.865689 -104.678176 359 5364ft 0kts
19-Mar-23 16:42 39.865689 -104.678176 359 5364ft 0kts
19-Mar-23 16:43 39.865689 -104.678176 359 5364ft 0kts
19-Mar-23 16:44 39.865593 -104.678176 359 5361ft 2kts
19-Mar-23 16:45 39.865047 -104.677990 278 5360ft 1kts
19-Mar-23 16:46 39.864991 -104.678225 247 5362ft 6kts
19-Mar-23 16:47 39.864531 -104.681773 230 5361ft 9kts
19-Mar-23 16:48 39.861615 -104.683907 179 5363ft 26kts
19-Mar-23 16:49 39.854677 -104.683989 180 5362ft 22kts
19-Mar-23 16:50 39.848514 -104.684063 181 5363ft 26kts
19-Mar-23 16:51 39.842248 -104.684131 180 5363ft 7kts
19-Mar-23 16:52 39.840625 -104.685759 269 5364ft 36kts
19-Mar-23 16:53 39.839254 -104.736674 253 7004ft 191kts
19-Mar-23 16:54 39.810505 -104.807170 247 9478ft 248kts
19-Mar-23 16:55 39.779155 -104.893886 245 12658ft 285kts
19-Mar-23 16:56 39.755121 -104.996383 254 13113ft 288kts
19-Mar-23 16:57 39.725968 -105.096569 247 16273ft 305kts
19-Mar-23 16:58 39.691582 -105.200310 249 19663ft 317kts
19-Mar-23 16:59 39.656383 -105.307362 249 22767ft 330kts
19-Mar-23 17:00 39.627505 -105.394844 250 23035ft 334kts
19-Mar-23 17:02 39.546688 -105.640438 252 23964ft 355kts
19-Mar-23 17:03 39.514928 -105.756532 253 26095ft 355kts
19-Mar-23 17:04 39.478943 -105.886807 252 26111ft 410kts
19-Mar-23 17:05 39.438243 -106.032235 252 26102ft 444kts
19-Mar-23 17:06 39.395762 -106.183380 252 26073ft 448kts
19-Mar-23 17:07 39.353000 -106.334461 252 26042ft 447kts
19-Mar-23 17:08 39.310191 -106.484976 251 26042ft 446kts
19-Mar-23 17:09 39.267189 -106.635335 251 26064ft 446kts
19-Mar-23 17:10 39.220206 -106.783058 245 26042ft 449kts
19-Mar-23 17:11 39.162843 -106.926114 245 26040ft 447kts
19-Mar-23 17:12 39.106978 -107.068842 245 25123ft 444kts
19-Mar-23 17:13 39.052538 -107.206811 244 21661ft 418kts
19-Mar-23 17:15 39.001287 -107.336165 243 18514ft 398kts
19-Mar-23 17:16 38.952174 -107.459678 242 15454ft 375kts
19-Mar-23 17:17 38.891891 -107.562437 222 15008ft 370kts
19-Mar-23 17:18 38.816668 -107.651375 223 14842ft 348kts
19-Mar-23 17:19 38.776660 -107.750031 257 12553ft 312kts
19-Mar-23 17:20 38.750789 -107.850072 240 10671ft 271kts
19-Mar-23 17:21 38.698306 -107.895064 183 9163ft 199kts
19-Mar-23 17:22 38.649613 -107.894122 184 7676ft 158kts
19-Mar-23 17:23 38.608711 -107.892955 183 7224ft 144kts
19-Mar-23 17:24 38.568392 -107.892852 182 6586ft 144kts
19-Mar-23 17:25 38.527697 -107.892737 176 5725ft 143kts
19-Mar-23 17:26 38.507244 -107.892622 179 5732ft 29kts
19-Mar-23 17:27 38.501591 -107.895350 229 5735ft 20kts
19-Mar-23 17:28 38.500129 -107.898208 315 5731ft 0kts
19-Mar-23 17:29 38.500129 -107.898208 315 5731ft 0kts
19-Mar-23 17:30 38.500129 -107.898208 315 5731ft 0kts
19-Mar-23 17:31 38.500129 -107.898208 315 5731ft 0kts

Navigation Log

Ident Type
Flight plan parsing failed, navigation log unavailable